Time;durP1;ratioP1;P1;durP2;ratioP2;P2;SDS_P1;SDS_P2;PMS_P1;PMS_P2;Temp;Humidity;BMP_temperature;BMP_pressure;BME280_temperature;BME280_humidity;BME280_pressure;Samples;Min_cycle;Max_cycle;Signal;HPM_P1;HPM_P2
2022/12/22 03:28:15;;;;;;;;;;;;;;;10.29;76.56;97601.78;7393240;19;19915;-68
2022/12/22 03:30:42;;;;;;;;;;;;;;;10.24;76.70;97590.88;7395003;19;19915;-68
2022/12/22 03:33:09;;;;;;;;;;;;;;;10.25;77.12;97594.34;7392507;19;19914;-69
2022/12/22 03:35:35;;;;;;;;;;;;;;;10.25;76.99;97591.69;7391292;19;19947;-68
2022/12/22 03:38:02;;;;;;;;;;;;;;;10.17;77.24;97579.34;7392768;19;19919;-69
2022/12/22 03:40:29;;;;;;;;;;;;;;;10.09;77.35;97566.16;7391346;19;19989;-68
2022/12/22 03:48:26;;;;;;;;;;;;;;;10.24;77.05;97553.00;7390930;19;19922;-68
2022/12/22 03:50:53;;;;;;;;;;;;;;;10.33;76.71;97566.06;7387770;19;19926;-69
2022/12/22 03:53:19;;;;;;;;;;;;;;;10.28;76.92;97555.19;7391109;19;19922;-68
2022/12/22 03:55:46;;;;;;;;;;;;;;;10.29;76.96;97563.94;7391124;19;20346;-69
2022/12/22 03:58:13;;;;;;;;;;;;;;;10.31;77.14;97565.41;7388130;19;19919;-68
2022/12/22 04:00:39;;;;;;;;;;;;;;;10.38;76.63;97560.25;7389098;19;19915;-68
2022/12/22 04:03:06;;;;;;;;;;;;;;;10.29;77.17;97571.84;7391982;19;19926;-68
2022/12/22 04:05:32;;;;;;;;;;;;;;;10.37;76.96;97571.00;7394345;19;19915;-68
2022/12/22 04:07:59;;;;;;;;;;;;;;;10.40;76.65;97562.69;7390794;19;19951;-68
2022/12/22 04:13:11;;;;;;;;;;;;;;;10.51;76.14;97565.78;7392834;19;19927;-69
2022/12/22 04:15:37;;;;;;;;;;;;;;;10.49;76.32;97564.31;7389149;19;20498;-68
2022/12/22 04:18:04;;;;;;;;;;;;;;;10.58;75.97;97554.50;7393014;19;19926;-68
2022/12/22 04:20:31;;;;;;;;;;;;;;;10.55;75.84;97556.50;7389287;19;19934;-69
2022/12/22 04:22:57;;;;;;;;;;;;;;;10.55;75.96;97550.38;7389267;19;19919;-68
2022/12/22 04:25:24;;;;;;;;;;;;;;;10.50;76.11;97552.72;7393324;19;19926;-69
2022/12/22 04:27:51;;;;;;;;;;;;;;;10.52;76.06;97556.84;7392753;19;19947;-68
2022/12/22 04:30:17;;;;;;;;;;;;;;;10.55;75.88;97553.84;7392053;19;20537;-69
2022/12/22 04:32:44;;;;;;;;;;;;;;;10.66;75.71;97546.50;7392286;19;19945;-68
2022/12/22 04:35:10;;;;;;;;;;;;;;;10.60;76.13;97541.94;7392594;19;20380;-68
2022/12/22 04:37:37;;;;;;;;;;;;;;;10.49;76.49;97543.97;7391054;19;19922;-68
2022/12/22 04:40:04;;;;;;;;;;;;;;;10.49;76.56;97537.88;7388212;19;19923;-69
2022/12/22 04:42:30;;;;;;;;;;;;;;;10.47;76.75;97532.75;7389377;19;19927;-68
2022/12/22 04:44:57;;;;;;;;;;;;;;;10.43;76.63;97534.13;7390618;19;19956;-68
2022/12/22 04:47:23;;;;;;;;;;;;;;;10.54;76.27;97532.88;7388507;19;20343;-68
2022/12/22 04:49:50;;;;;;;;;;;;;;;10.44;76.54;97525.16;7389918;19;19951;-69
2022/12/22 04:52:16;;;;;;;;;;;;;;;10.54;76.43;97530.25;7389284;19;19926;-68
2022/12/22 04:54:43;;;;;;;;;;;;;;;10.44;76.67;97525.16;7389991;19;19922;-68
2022/12/22 04:57:10;;;;;;;;;;;;;;;10.51;76.33;97523.47;7390325;19;19926;-68
2022/12/22 04:59:36;;;;;;;;;;;;;;;10.52;76.39;97522.47;7386758;19;19937;-69
2022/12/22 05:02:03;;;;;;;;;;;;;;;10.53;76.14;97513.56;7390507;19;20450;-68
2022/12/22 05:04:29;;;;;;;;;;;;;;;10.59;76.01;97513.84;7390841;19;20336;-69
2022/12/22 05:06:56;;;;;;;;;;;;;;;10.53;76.29;97512.69;7390159;19;19922;-68
2022/12/22 05:09:23;;;;;;;;;;;;;;;10.35;76.62;97513.03;7388594;19;20442;-68
2022/12/22 05:11:49;;;;;;;;;;;;;;;10.44;76.22;97509.31;7385036;19;19931;-68
2022/12/22 05:14:16;;;;;;;;;;;;;;;10.51;76.24;97514.72;7389313;19;19922;-68
2022/12/22 05:16:42;;;;;;;;;;;;;;;10.59;75.72;97513.84;7388137;19;20276;-69
2022/12/22 05:19:09;;;;;;;;;;;;;;;10.64;75.69;97517.59;7386870;19;20199;-69
2022/12/22 05:21:36;;;;;;;;;;;;;;;10.61;76.02;97527.69;7387758;19;19949;-69
2022/12/22 05:24:02;;;;;;;;;;;;;;;10.60;75.98;97518.13;7392974;19;20462;-69
2022/12/22 05:26:29;;;;;;;;;;;;;;;10.59;76.04;97516.50;7390131;19;20572;-69
2022/12/22 05:28:55;;;;;;;;;;;;;;;10.63;75.76;97510.66;7388471;19;19930;-69
2022/12/22 05:31:22;;;;;;;;;;;;;;;10.71;75.53;97512.41;7385713;19;19947;-69
2022/12/22 05:33:49;;;;;;;;;;;;;;;10.60;76.10;97507.53;7391506;19;19923;-68
2022/12/22 05:36:16;;;;;;;;;;;;;;;10.62;75.66;97513.50;7391586;19;19948;-69
2022/12/22 05:38:45;;;;;;;;;;;;;;;10.63;75.60;97509.81;7389712;19;19914;-69
2022/12/22 05:41:12;;;;;;;;;;;;;;;10.68;75.57;97510.94;7388464;19;19914;-69
2022/12/22 05:43:38;;;;;;;;;;;;;;;10.83;75.03;97511.00;7389643;19;19939;-69
2022/12/22 05:46:06;;;;;;;;;;;;;;;10.74;75.25;97509.41;7389312;19;19915;-69
2022/12/22 05:48:33;;;;;;;;;;;;;;;10.82;75.17;97509.38;7385988;19;19938;-69
2022/12/22 05:51:05;;;;;;;;;;;;;;;10.92;74.93;97511.75;7388772;19;19923;-69
2022/12/22 05:53:31;;;;;;;;;;;;;;;10.89;75.10;97525.34;7391958;19;19926;-69
2022/12/22 05:55:58;;;;;;;;;;;;;;;10.83;75.05;97523.41;7396627;19;19919;-68
2022/12/22 05:58:24;;;;;;;;;;;;;;;10.87;74.88;97522.84;7391143;19;19961;-69
2022/12/22 06:00:54;;;;;;;;;;;;;;;10.89;74.81;97518.22;7393162;19;19926;-68
2022/12/22 06:03:20;;;;;;;;;;;;;;;10.91;74.61;97515.41;7395229;19;20008;-69
2022/12/22 06:05:50;;;;;;;;;;;;;;;10.85;74.77;97509.00;7394311;19;19923;-68
2022/12/22 06:08:17;;;;;;;;;;;;;;;10.66;74.98;97498.88;7392871;19;19927;-69
2022/12/22 06:10:44;;;;;;;;;;;;;;;10.67;75.07;97497.91;7395133;19;20398;-68
2022/12/22 06:13:10;;;;;;;;;;;;;;;10.62;75.42;97498.44;7395822;19;19919;-68
2022/12/22 06:15:37;;;;;;;;;;;;;;;10.59;75.17;97492.69;7390830;19;19918;-68
2022/12/22 06:18:03;;;;;;;;;;;;;;;10.53;75.49;97505.63;7391597;19;19927;-69
2022/12/22 06:20:30;;;;;;;;;;;;;;;10.37;76.43;97502.25;7393037;19;19951;-68
2022/12/22 06:22:56;;;;;;;;;;;;;;;10.38;76.20;97502.09;7393292;19;19919;-68
2022/12/22 06:25:23;;;;;;;;;;;;;;;10.36;76.01;97501.44;7394099;19;19925;-68
2022/12/22 06:27:49;;;;;;;;;;;;;;;10.41;76.12;97496.44;7391128;19;19915;-69
2022/12/22 06:30:16;;;;;;;;;;;;;;;10.41;75.83;97495.63;7391263;19;20444;-68
2022/12/22 06:32:43;;;;;;;;;;;;;;;10.31;76.19;97496.66;7394476;19;19994;-68
2022/12/22 06:35:10;;;;;;;;;;;;;;;10.26;76.31;97496.34;7391986;19;20375;-68
2022/12/22 06:37:36;;;;;;;;;;;;;;;10.37;76.21;97491.66;7389985;19;20280;-69
2022/12/22 06:40:03;;;;;;;;;;;;;;;10.43;75.97;97494.44;7390733;19;20316;-68
2022/12/22 06:45:15;;;;;;;;;;;;;;;10.51;75.65;97497.03;7389216;19;19923;-68
2022/12/22 06:47:42;;;;;;;;;;;;;;;10.76;74.52;97491.53;7388336;19;19919;-68
2022/12/22 06:50:08;;;;;;;;;;;;;;;10.68;74.64;97507.47;7393528;19;19922;-68
2022/12/22 06:52:35;;;;;;;;;;;;;;;10.76;74.49;97496.81;7394056;19;19933;-68
2022/12/22 06:55:02;;;;;;;;;;;;;;;10.72;74.28;97498.19;7390411;19;20034;-68
2022/12/22 06:57:28;;;;;;;;;;;;;;;10.83;73.73;97494.31;7394037;19;19914;-68
2022/12/22 07:00:05;;;;;;;;;;;;;;;10.95;73.51;97506.09;7392000;19;19927;-68
2022/12/22 07:02:31;;;;;;;;;;;;;;;10.88;73.95;97508.63;7393296;19;19915;-68
2022/12/22 07:04:58;;;;;;;;;;;;;;;10.83;73.71;97510.19;7390585;19;20339;-68
2022/12/22 07:07:25;;;;;;;;;;;;;;;10.63;74.49;97509.81;7394178;19;19926;-68
2022/12/22 07:09:51;;;;;;;;;;;;;;;10.68;74.17;97513.59;7387176;19;19918;-68
2022/12/22 07:12:18;;;;;;;;;;;;;;;10.72;73.82;97525.47;7392532;19;19915;-68
2022/12/22 07:14:44;;;;;;;;;;;;;;;10.81;73.30;97538.63;7391599;19;19922;-68
2022/12/22 07:17:11;;;;;;;;;;;;;;;10.79;73.15;97535.34;7394465;19;19914;-68
2022/12/22 07:19:37;;;;;;;;;;;;;;;10.80;72.92;97543.09;7388166;19;19922;-68
2022/12/22 07:22:04;;;;;;;;;;;;;;;10.90;73.01;97546.34;7392849;19;20403;-68
2022/12/22 07:24:31;;;;;;;;;;;;;;;10.85;73.00;97542.56;7393036;19;19915;-68
2022/12/22 07:26:57;;;;;;;;;;;;;;;10.88;72.82;97547.50;7394400;19;19975;-68
2022/12/22 07:29:24;;;;;;;;;;;;;;;10.75;72.58;97532.22;7390838;19;19911;-67
2022/12/22 07:31:51;;;;;;;;;;;;;;;10.86;72.44;97531.81;7394713;19;19951;-68
2022/12/22 07:34:17;;;;;;;;;;;;;;;10.73;72.62;97537.69;7392688;19;19942;-67
2022/12/22 07:36:44;;;;;;;;;;;;;;;10.89;72.46;97547.31;7395986;19;19922;-67
2022/12/22 07:39:11;;;;;;;;;;;;;;;10.85;72.13;97558.44;7388424;19;19923;-68
2022/12/22 07:44:23;;;;;;;;;;;;;;;10.91;71.92;97549.81;7392864;19;19926;-67
2022/12/22 07:46:49;;;;;;;;;;;;;;;11.04;71.74;97554.50;7391721;19;19923;-67
2022/12/22 07:52:01;;;;;;;;;;;;;;;10.94;71.54;97557.38;7390696;19;19918;-68
2022/12/22 07:54:28;;;;;;;;;;;;;;;10.94;70.88;97565.31;7390589;19;19929;-66
2022/12/22 07:56:55;;;;;;;;;;;;;;;10.90;71.34;97574.59;7386545;19;20702;-67
2022/12/22 07:59:21;;;;;;;;;;;;;;;10.96;71.17;97569.44;7382630;19;19933;-67
2022/12/22 08:01:48;;;;;;;;;;;;;;;10.90;71.23;97548.13;7386061;19;19923;-67
2022/12/22 08:04:15;;;;;;;;;;;;;;;10.92;70.62;97544.31;7390655;19;19988;-67
2022/12/22 08:06:41;;;;;;;;;;;;;;;11.02;71.11;97556.50;7389215;19;19939;-68
2022/12/22 08:09:15;;;;;;;;;;;;;;;10.92;71.01;97552.25;7386643;19;20009;-67
2022/12/22 08:11:45;;;;;;;;;;;;;;;10.85;71.36;97564.56;7392019;19;19925;-68
2022/12/22 08:14:11;;;;;;;;;;;;;;;10.78;71.15;97566.28;7390146;19;19930;-67
2022/12/22 08:16:38;;;;;;;;;;;;;;;10.80;72.06;97558.16;7389694;19;19927;-67
2022/12/22 08:19:04;;;;;;;;;;;;;;;10.88;72.14;97556.28;7388505;19;20255;-67
2022/12/22 08:21:31;;;;;;;;;;;;;;;10.99;71.99;97555.03;7390436;19;19990;-67
2022/12/22 08:23:57;;;;;;;;;;;;;;;11.08;71.66;97555.75;7385222;19;19918;-67
2022/12/22 08:26:26;;;;;;;;;;;;;;;11.04;71.85;97557.13;7388180;19;19931;-68
2022/12/22 08:28:58;;;;;;;;;;;;;;;11.18;71.35;97572.22;7383433;19;20290;-67
2022/12/22 08:31:25;;;;;;;;;;;;;;;11.17;71.49;97563.47;7382441;19;19929;-68
2022/12/22 08:33:52;;;;;;;;;;;;;;;11.28;71.33;97569.34;7387217;19;19966;-67
2022/12/22 08:36:18;;;;;;;;;;;;;;;11.37;71.32;97565.59;7384553;19;19919;-68
2022/12/22 08:38:45;;;;;;;;;;;;;;;11.19;71.27;97558.81;7381680;19;19922;-66
2022/12/22 08:41:11;;;;;;;;;;;;;;;11.27;71.49;97557.94;7380817;19;19930;-66
2022/12/22 08:43:38;;;;;;;;;;;;;;;11.15;71.26;97559.34;7385034;19;19930;-68
2022/12/22 08:46:04;;;;;;;;;;;;;;;11.34;71.16;97558.81;7386787;19;19926;-68
2022/12/22 08:48:31;;;;;;;;;;;;;;;11.32;71.37;97555.56;7389337;19;19918;-67
2022/12/22 08:50:58;;;;;;;;;;;;;;;11.37;71.38;97547.91;7390026;19;19923;-68
2022/12/22 08:53:24;;;;;;;;;;;;;;;11.33;71.70;97553.72;7389463;19;19915;-67
2022/12/22 08:56:11;;;;;;;;;;;;;;;11.25;71.34;97546.69;7390348;19;19935;-67
2022/12/22 08:58:39;;;;;;;;;;;;;;;11.49;71.20;97550.91;7386831;19;19919;-68
2022/12/22 09:01:05;;;;;;;;;;;;;;;11.52;71.05;97541.78;7387780;19;19938;-67
2022/12/22 09:03:32;;;;;;;;;;;;;;;11.38;70.88;97540.78;7389937;19;19942;-67
2022/12/22 09:05:59;;;;;;;;;;;;;;;11.40;71.14;97542.22;7390296;19;19999;-67
2022/12/22 09:08:26;;;;;;;;;;;;;;;11.51;70.63;97542.78;7386936;19;19929;-67
2022/12/22 09:10:53;;;;;;;;;;;;;;;11.57;70.91;97555.31;7386932;19;19923;-67
2022/12/22 09:13:19;;;;;;;;;;;;;;;11.59;70.25;97553.31;7391691;19;20434;-67
2022/12/22 09:15:46;;;;;;;;;;;;;;;11.56;70.11;97556.31;7388618;19;19919;-67
2022/12/22 09:18:12;;;;;;;;;;;;;;;11.67;70.76;97563.81;7387346;19;19919;-67
2022/12/22 09:20:42;;;;;;;;;;;;;;;11.76;69.27;97560.03;7385814;19;19942;-67
2022/12/22 09:23:09;;;;;;;;;;;;;;;11.84;68.72;97557.28;7388254;19;20262;-66
2022/12/22 09:25:35;;;;;;;;;;;;;;;11.85;69.06;97561.63;7387308;19;19919;-68
2022/12/22 09:28:05;;;;;;;;;;;;;;;11.64;70.91;97566.81;7386236;19;19919;-67
2022/12/22 09:30:32;;;;;;;;;;;;;;;11.33;72.71;97575.72;7387977;19;20281;-67
2022/12/22 09:32:58;;;;;;;;;;;;;;;10.93;74.45;97572.44;7389346;19;19926;-68
2022/12/22 09:35:25;;;;;;;;;;;;;;;10.70;75.29;97579.56;7389655;19;19934;-67
2022/12/22 09:37:54;;;;;;;;;;;;;;;10.65;75.61;97576.63;7389068;19;19947;-67
2022/12/22 09:40:21;;;;;;;;;;;;;;;10.62;76.59;97583.06;7389033;19;20272;-67
2022/12/22 09:42:47;;;;;;;;;;;;;;;10.68;76.23;97586.84;7386934;19;19925;-68
2022/12/22 09:45:18;;;;;;;;;;;;;;;10.66;76.67;97588.81;7388077;19;19974;-67
2022/12/22 09:47:52;;;;;;;;;;;;;;;10.59;76.46;97590.56;7388261;19;19919;-67
2022/12/22 09:50:23;;;;;;;;;;;;;;;10.72;76.50;97588.16;7384704;19;19987;-68
2022/12/22 09:52:54;;;;;;;;;;;;;;;10.61;76.89;97585.88;7391184;19;19946;-67
2022/12/22 09:55:24;;;;;;;;;;;;;;;10.72;76.17;97585.50;7386754;19;19926;-67
2022/12/22 09:57:54;;;;;;;;;;;;;;;10.67;76.45;97593.13;7386512;19;19926;-68
2022/12/22 10:00:22;;;;;;;;;;;;;;;10.71;76.21;97583.84;7389221;19;20383;-68
2022/12/22 10:03:00;;;;;;;;;;;;;;;10.71;76.49;97587.28;7390996;19;20339;-67
2022/12/22 10:05:37;;;;;;;;;;;;;;;10.67;76.41;97588.66;7387387;19;19922;-69
2022/12/22 10:08:08;;;;;;;;;;;;;;;10.62;76.65;97584.91;7387015;19;19919;-68
2022/12/22 10:10:35;;;;;;;;;;;;;;;10.67;76.69;97587.84;7385970;19;19926;-69
2022/12/22 10:13:02;;;;;;;;;;;;;;;10.62;76.59;97595.47;7389621;19;19927;-68
2022/12/22 10:15:39;;;;;;;;;;;;;;;10.65;76.78;97589.84;7385438;19;20368;-69
2022/12/22 10:18:15;;;;;;;;;;;;;;;10.66;77.08;97594.94;7387225;19;19927;-69
2022/12/22 10:20:44;;;;;;;;;;;;;;;10.77;76.73;97596.38;7384688;19;19918;-69
2022/12/22 10:23:16;;;;;;;;;;;;;;;10.76;76.89;97598.19;7384554;19;19927;-69
2022/12/22 10:25:59;;;;;;;;;;;;;;;10.74;77.58;97605.50;7387866;19;19931;-68
2022/12/22 10:28:46;;;;;;;;;;;;;;;10.91;76.91;97602.72;7381966;19;20010;-69
2022/12/22 10:31:23;;;;;;;;;;;;;;;10.81;77.90;97612.72;7384747;19;19934;-68
2022/12/22 10:33:51;;;;;;;;;;;;;;;10.83;78.01;97622.13;7388957;19;20276;-68
2022/12/22 10:36:25;;;;;;;;;;;;;;;10.76;77.98;97618.53;7387268;19;19926;-68
2022/12/22 10:39:06;;;;;;;;;;;;;;;10.77;77.95;97625.47;7384820;19;19923;-69
2022/12/22 10:41:39;;;;;;;;;;;;;;;10.72;78.40;97633.94;7394386;19;19919;-68
2022/12/22 10:44:10;;;;;;;;;;;;;;;10.70;78.74;97619.22;7391859;19;20672;-68
2022/12/22 10:46:38;;;;;;;;;;;;;;;10.82;79.14;97620.50;7389038;19;19958;-69
2022/12/22 10:49:09;;;;;;;;;;;;;;;10.64;78.91;97609.38;7390483;19;19919;-68
2022/12/22 10:51:36;;;;;;;;;;;;;;;10.85;78.56;97611.34;7394648;19;19925;-67
2022/12/22 10:54:02;;;;;;;;;;;;;;;10.76;78.25;97607.94;7387298;19;19975;-68
2022/12/22 10:56:30;;;;;;;;;;;;;;;10.86;78.04;97620.94;7392024;19;19951;-68
2022/12/22 10:59:00;;;;;;;;;;;;;;;10.89;78.00;97608.19;7386896;19;19927;-68
2022/12/22 11:01:30;;;;;;;;;;;;;;;10.83;77.90;97606.25;7391257;19;19919;-68
2022/12/22 11:03:57;;;;;;;;;;;;;;;10.76;77.73;97592.06;7395092;19;19923;-68
2022/12/22 11:06:24;;;;;;;;;;;;;;;10.78;77.55;97600.66;7392203;19;19923;-69
2022/12/22 11:08:51;;;;;;;;;;;;;;;10.94;77.39;97607.66;7388158;19;20243;-69
2022/12/22 11:11:36;;;;;;;;;;;;;;;10.99;77.23;97606.13;7392406;19;19930;-68
2022/12/22 11:14:21;;;;;;;;;;;;;;;10.98;77.24;97603.69;7393378;19;19915;-69
2022/12/22 11:16:54;;;;;;;;;;;;;;;10.99;77.24;97600.84;7392300;19;19940;-68
2022/12/22 11:19:24;;;;;;;;;;;;;;;11.30;76.87;97597.28;7387546;19;20257;-67
2022/12/22 11:22:03;;;;;;;;;;;;;;;11.31;76.51;97593.63;7391728;19;19957;-68
2022/12/22 11:24:29;;;;;;;;;;;;;;;11.23;76.53;97593.69;7392468;19;19938;-68
2022/12/22 11:27:15;;;;;;;;;;;;;;;11.40;75.89;97597.00;7391372;19;20463;-68
2022/12/22 11:29:41;;;;;;;;;;;;;;;11.12;76.17;97597.59;7391838;19;19942;-68
2022/12/22 11:32:08;;;;;;;;;;;;;;;11.28;76.08;97599.28;7393360;19;19925;-68
2022/12/22 11:35:07;;;;;;;;;;;;;;;11.15;76.72;97602.53;7385879;19;19937;-68
2022/12/22 11:37:33;;;;;;;;;;;;;;;11.29;75.93;97600.91;7385205;19;20026;-68
2022/12/22 11:40:11;;;;;;;;;;;;;;;11.44;75.93;97595.66;7386158;19;19925;-68
2022/12/22 11:42:50;;;;;;;;;;;;;;;11.38;76.11;97602.50;7382699;19;20629;-68
2022/12/22 11:45:17;;;;;;;;;;;;;;;11.49;75.22;97613.66;7389795;19;19958;-68
2022/12/22 11:47:53;;;;;;;;;;;;;;;11.59;74.72;97614.22;7386153;19;19922;-68
2022/12/22 11:50:26;;;;;;;;;;;;;;;11.63;75.21;97616.31;7380821;19;19926;-68
2022/12/22 11:53:23;;;;;;;;;;;;;;;11.66;74.95;97615.13;7389459;19;19921;-68
2022/12/22 11:55:53;;;;;;;;;;;;;;;11.59;75.03;97615.03;7388279;19;20296;-68
2022/12/22 11:58:22;;;;;;;;;;;;;;;11.72;74.78;97603.00;7386131;19;19929;-68
2022/12/22 12:01:02;;;;;;;;;;;;;;;11.83;74.36;97605.19;7386990;19;19915;-68
2022/12/22 12:03:47;;;;;;;;;;;;;;;11.84;73.59;97614.78;7386744;19;19995;-68
2022/12/22 12:06:25;;;;;;;;;;;;;;;11.67;74.33;97608.84;7380224;19;20208;-68
2022/12/22 12:09:11;;;;;;;;;;;;;;;11.89;73.87;97609.78;7381845;19;19948;-68
2022/12/22 12:11:40;;;;;;;;;;;;;;;11.76;74.12;97601.63;7389409;19;19925;-68
2022/12/22 12:14:09;;;;;;;;;;;;;;;11.92;73.60;97605.97;7384113;19;19923;-68
2022/12/22 12:16:43;;;;;;;;;;;;;;;11.87;73.87;97609.16;7388124;19;19923;-68
2022/12/22 12:19:48;;;;;;;;;;;;;;;11.65;73.50;97619.63;7384937;19;19928;-69
2022/12/22 12:22:25;;;;;;;;;;;;;;;11.81;73.33;97615.16;7382215;19;19918;-69
2022/12/22 12:25:00;;;;;;;;;;;;;;;11.86;73.43;97629.53;7383988;19;19939;-68
2022/12/22 12:27:38;;;;;;;;;;;;;;;12.05;72.70;97625.50;7387705;19;19951;-67
2022/12/22 12:30:05;;;;;;;;;;;;;;;12.18;72.42;97632.81;7382620;19;19929;-68
2022/12/22 12:33:07;;;;;;;;;;;;;;;12.36;72.27;97627.13;7382238;19;19918;-68
2022/12/22 12:35:35;;;;;;;;;;;;;;;12.60;70.25;97626.00;7388318;19;19947;-67
2022/12/22 12:38:04;;;;;;;;;;;;;;;12.50;70.20;97631.59;7384985;19;19927;-66
2022/12/22 12:40:37;;;;;;;;;;;;;;;12.71;70.74;97630.81;7384481;19;19967;-67
2022/12/22 12:43:03;;;;;;;;;;;;;;;12.61;69.80;97632.97;7383814;19;19910;-67
2022/12/22 12:45:35;;;;;;;;;;;;;;;12.64;69.61;97637.06;7381285;19;19922;-68
2022/12/22 12:48:25;;;;;;;;;;;;;;;12.45;68.94;97649.06;7379832;19;19964;-70
2022/12/22 12:50:54;;;;;;;;;;;;;;;12.18;70.02;97645.25;7385393;19;19915;-68
2022/12/22 12:53:21;;;;;;;;;;;;;;;12.41;70.26;97647.81;7383237;19;20348;-68
2022/12/22 12:55:48;;;;;;;;;;;;;;;12.56;70.55;97653.91;7386914;19;20267;-68
2022/12/22 12:58:33;;;;;;;;;;;;;;;12.45;69.88;97651.72;7386253;19;19960;-67
2022/12/22 13:01:00;;;;;;;;;;;;;;;12.56;70.27;97661.03;7388023;19;19956;-68
2022/12/22 13:03:27;;;;;;;;;;;;;;;12.47;69.59;97652.38;7380919;19;20361;-69
2022/12/22 13:06:32;;;;;;;;;;;;;;;12.50;68.99;97654.63;7384110;19;19911;-69
2022/12/22 13:09:05;;;;;;;;;;;;;;;12.52;69.60;97665.91;7387110;19;19919;-68
2022/12/22 13:11:51;;;;;;;;;;;;;;;12.08;69.33;97659.63;7387412;19;19995;-70
2022/12/22 13:14:56;;;;;;;;;;;;;;;12.15;69.88;97683.56;7384096;19;19972;-68
2022/12/22 13:17:32;;;;;;;;;;;;;;;12.10;70.13;97685.13;7384547;19;19923;-68
2022/12/22 13:19:59;;;;;;;;;;;;;;;12.25;70.06;97689.44;7384618;19;19932;-68
2022/12/22 13:22:26;;;;;;;;;;;;;;;12.23;69.40;97699.41;7381354;19;19919;-69
2022/12/22 13:24:52;;;;;;;;;;;;;;;12.07;70.26;97703.03;7383532;19;20030;-68
2022/12/22 13:27:19;;;;;;;;;;;;;;;12.07;70.34;97703.03;7384116;19;20013;-69
2022/12/22 13:29:47;;;;;;;;;;;;;;;12.11;70.67;97708.78;7380216;19;19922;-68
2022/12/22 13:32:16;;;;;;;;;;;;;;;11.97;70.28;97709.63;7385598;19;19918;-68
2022/12/22 13:34:47;;;;;;;;;;;;;;;12.00;70.36;97717.19;7382483;19;19926;-68
2022/12/22 13:37:41;;;;;;;;;;;;;;;12.06;70.39;97714.66;7383978;19;19922;-68
2022/12/22 13:40:07;;;;;;;;;;;;;;;11.97;70.73;97720.22;7383987;19;20383;-69
2022/12/22 13:42:38;;;;;;;;;;;;;;;11.95;70.62;97722.22;7387349;19;19922;-68
2022/12/22 13:45:06;;;;;;;;;;;;;;;11.92;71.02;97718.09;7381277;19;20557;-67
2022/12/22 13:47:32;;;;;;;;;;;;;;;12.02;70.83;97725.81;7379923;19;19919;-67
2022/12/22 13:49:59;;;;;;;;;;;;;;;11.91;70.71;97718.28;7381738;19;20323;-69
2022/12/22 13:52:35;;;;;;;;;;;;;;;12.25;70.16;97733.69;7383600;19;19926;-68
2022/12/22 13:55:01;;;;;;;;;;;;;;;12.20;70.29;97723.63;7384574;19;19923;-68
2022/12/22 13:57:28;;;;;;;;;;;;;;;12.28;70.29;97726.19;7385462;19;19918;-68
2022/12/22 13:59:55;;;;;;;;;;;;;;;12.33;69.37;97722.19;7380277;19;19930;-68
2022/12/22 14:02:21;;;;;;;;;;;;;;;12.02;69.45;97734.56;7383956;19;19919;-69
2022/12/22 14:05:07;;;;;;;;;;;;;;;12.04;69.87;97732.56;7380351;19;19923;-68
2022/12/22 14:07:34;;;;;;;;;;;;;;;12.08;69.71;97733.03;7382323;19;19918;-68
2022/12/22 14:10:01;;;;;;;;;;;;;;;12.22;69.64;97734.88;7379564;19;19930;-68
2022/12/22 14:12:31;;;;;;;;;;;;;;;12.12;69.73;97733.50;7382390;19;19930;-69
2022/12/22 14:14:59;;;;;;;;;;;;;;;11.92;70.38;97733.19;7380172;19;20341;-69
2022/12/22 14:17:27;;;;;;;;;;;;;;;11.89;70.03;97742.31;7386269;19;19923;-68
2022/12/22 14:19:55;;;;;;;;;;;;;;;11.95;70.21;97743.41;7388393;19;19942;-69
2022/12/22 14:22:27;;;;;;;;;;;;;;;11.96;69.59;97739.78;7388627;19;20316;-68
2022/12/22 14:25:00;;;;;;;;;;;;;;;11.98;69.86;97748.34;7390048;19;19914;-67
2022/12/22 14:27:31;;;;;;;;;;;;;;;12.10;69.39;97746.94;7388580;19;20336;-68
2022/12/22 14:29:59;;;;;;;;;;;;;;;11.89;69.20;97755.56;7389591;19;19927;-68
2022/12/22 14:32:39;;;;;;;;;;;;;;;11.97;69.16;97741.41;7388294;19;19923;-68
2022/12/22 14:35:14;;;;;;;;;;;;;;;12.21;68.56;97750.97;7390297;19;19937;-68
2022/12/22 14:37:40;;;;;;;;;;;;;;;12.53;68.25;97757.75;7389063;19;19921;-68
2022/12/22 14:40:13;;;;;;;;;;;;;;;12.02;67.94;97736.41;7389285;19;19919;-68
2022/12/22 14:42:43;;;;;;;;;;;;;;;12.06;68.36;97741.19;7391865;19;19929;-67
2022/12/22 14:45:13;;;;;;;;;;;;;;;12.14;68.18;97737.63;7389194;19;20278;-67
2022/12/22 14:47:40;;;;;;;;;;;;;;;12.27;68.02;97752.91;7388898;19;20363;-68
2022/12/22 14:50:15;;;;;;;;;;;;;;;12.15;68.06;97749.88;7388299;19;19914;-67
2022/12/22 14:52:44;;;;;;;;;;;;;;;11.95;68.43;97757.50;7390164;19;19919;-68
2022/12/22 14:55:30;;;;;;;;;;;;;;;11.91;68.65;97758.88;7389943;19;19927;-68
2022/12/22 14:57:58;;;;;;;;;;;;;;;11.93;69.14;97766.63;7388299;19;19954;-68
2022/12/22 15:00:51;;;;;;;;;;;;;;;11.98;68.94;97769.56;7390862;19;20008;-68
2022/12/22 15:03:24;;;;;;;;;;;;;;;11.89;68.57;97774.13;7388294;19;19915;-68
2022/12/22 15:05:52;;;;;;;;;;;;;;;11.91;68.93;97780.09;7390550;19;19915;-70
2022/12/22 15:08:37;;;;;;;;;;;;;;;11.89;68.73;97775.97;7387561;19;19939;-68
2022/12/22 15:11:08;;;;;;;;;;;;;;;11.88;68.96;97783.09;7388605;19;19925;-68
2022/12/22 15:13:36;;;;;;;;;;;;;;;12.02;68.78;97790.25;7388037;19;19919;-67
2022/12/22 15:16:03;;;;;;;;;;;;;;;12.07;68.99;97785.22;7389048;19;19921;-68
2022/12/22 15:18:30;;;;;;;;;;;;;;;11.99;68.74;97792.44;7386551;19;19923;-68
2022/12/22 15:20:56;;;;;;;;;;;;;;;11.97;68.70;97792.59;7386784;19;20342;-68
2022/12/22 15:23:23;;;;;;;;;;;;;;;11.87;68.88;97789.38;7381973;19;20358;-67
2022/12/22 15:25:49;;;;;;;;;;;;;;;11.85;68.51;97789.53;7389240;19;19974;-68
2022/12/22 15:28:16;;;;;;;;;;;;;;;11.82;69.07;97791.69;7387096;19;19927;-68
2022/12/22 15:30:45;;;;;;;;;;;;;;;11.83;69.06;97802.13;7383519;19;19921;-68
2022/12/22 15:33:21;;;;;;;;;;;;;;;11.95;68.90;97796.44;7388370;19;19948;-68
2022/12/22 15:35:48;;;;;;;;;;;;;;;12.03;68.92;97799.03;7390012;19;19930;-68
2022/12/22 15:38:16;;;;;;;;;;;;;;;11.95;69.30;97799.09;7385139;19;19929;-68
2022/12/22 15:40:43;;;;;;;;;;;;;;;11.91;69.71;97801.28;7385543;19;19933;-68
2022/12/22 15:43:10;;;;;;;;;;;;;;;11.84;69.74;97808.25;7387859;19;20347;-68
2022/12/22 15:45:56;;;;;;;;;;;;;;;11.76;70.20;97797.72;7389483;19;20022;-69
2022/12/22 15:48:33;;;;;;;;;;;;;;;11.72;70.45;97801.75;7384465;19;19922;-68
2022/12/22 15:51:01;;;;;;;;;;;;;;;11.67;70.39;97804.91;7384970;19;19956;-68
2022/12/22 15:53:27;;;;;;;;;;;;;;;11.67;70.47;97804.91;7385012;19;20350;-67
2022/12/22 15:55:54;;;;;;;;;;;;;;;11.50;71.13;97796.25;7384882;19;19938;-68
2022/12/22 15:58:21;;;;;;;;;;;;;;;11.56;71.21;97807.97;7386511;19;19982;-68
2022/12/22 16:00:48;;;;;;;;;;;;;;;11.54;71.06;97805.50;7384156;19;19930;-67
2022/12/22 16:03:15;;;;;;;;;;;;;;;11.49;71.08;97805.19;7385068;19;19915;-69
2022/12/22 16:05:41;;;;;;;;;;;;;;;11.42;71.38;97798.94;7387483;19;20340;-68
2022/12/22 16:08:11;;;;;;;;;;;;;;;11.37;71.50;97793.34;7386325;19;19942;-68
2022/12/22 16:10:43;;;;;;;;;;;;;;;11.38;71.46;97795.00;7383726;19;19948;-68
2022/12/22 16:13:10;;;;;;;;;;;;;;;11.43;71.00;97798.78;7388981;19;19943;-68
2022/12/22 16:15:37;;;;;;;;;;;;;;;11.37;71.17;97796.84;7385825;19;19926;-68
2022/12/22 16:18:04;;;;;;;;;;;;;;;11.27;71.29;97793.59;7388076;19;19918;-68
2022/12/22 16:20:34;;;;;;;;;;;;;;;11.28;71.73;97795.22;7389222;19;19923;-70
2022/12/22 16:23:03;;;;;;;;;;;;;;;11.30;71.58;97803.81;7390943;19;19933;-68
2022/12/22 16:25:32;;;;;;;;;;;;;;;11.28;71.66;97800.53;7389417;19;19937;-68
2022/12/22 16:28:02;;;;;;;;;;;;;;;11.20;72.09;97792.63;7384797;19;19933;-69
2022/12/22 16:30:29;;;;;;;;;;;;;;;11.05;72.44;97789.06;7386443;19;19925;-68
2022/12/22 16:32:56;;;;;;;;;;;;;;;11.03;72.33;97788.41;7386057;19;19915;-68
2022/12/22 16:35:24;;;;;;;;;;;;;;;10.92;72.72;97792.25;7387653;19;19923;-68
2022/12/22 16:37:50;;;;;;;;;;;;;;;11.04;72.33;97790.88;7386862;19;19934;-69
2022/12/22 16:40:17;;;;;;;;;;;;;;;11.00;72.21;97789.56;7387564;19;19922;-69
2022/12/22 16:42:46;;;;;;;;;;;;;;;10.87;72.33;97789.28;7383025;19;19914;-69
2022/12/22 16:45:27;;;;;;;;;;;;;;;11.01;72.06;97793.06;7384256;19;19925;-69